Time;durP1;ratioP1;P1;durP2;ratioP2;P2;SDS_P1;SDS_P2;PMS_P1;PMS_P2;Temp;Humidity;BMP_temperature;BMP_pressure;BME280_temperature;BME280_humidity;BME280_pressure;Samples;Min_cycle;Max_cycle;Signal;HPM_P1;HPM_P2
2022/12/10 00:02:24;;;;;;;;;;;-3.10;99.90;;;;;;4988657;28;20374;-88
2022/12/10 00:04:55;;;;;;;;;;;-3.20;99.90;;;;;;4973291;28;19933;-89
2022/12/10 00:10:12;;;;;;;;;;;-3.10;99.90;;;;;;4983232;28;20396;-88
2022/12/10 00:12:48;;;;;;;;;;;-3.20;99.90;;;;;;4976577;28;20392;-88
2022/12/10 00:15:23;;;;;;;;;;;-3.20;99.90;;;;;;4976094;28;19926;-87
2022/12/10 00:18:02;;;;;;;;;;;;;;;;;;;;;
2022/12/10 00:20:50;;;;;;;;;;;-3.30;99.90;;;;;;4982399;28;19930;-88
2022/12/10 00:23:32;;;;;;;;;;;-3.30;99.90;;;;;;4987742;28;19946;-88
2022/12/10 00:26:05;;;;;;;;;;;-3.30;99.90;;;;;;4977001;28;19931;-88
2022/12/10 00:31:42;;;;;;;;;;;-3.30;99.90;;;;;;5002485;28;19933;-87
2022/12/10 00:34:13;;;;;;;;;;;-3.30;99.90;;;;;;4995402;28;19972;-88
2022/12/10 00:36:53;;;;;;;;;;;-3.40;99.90;;;;;;4969254;28;20400;-88
2022/12/10 00:39:24;;;;;;;;;;;-3.30;99.90;;;;;;4977296;28;19933;-88
2022/12/10 00:41:57;;;;;;;;;;;-3.40;99.90;;;;;;4957029;28;19940;-87
2022/12/10 00:47:26;;;;;;;;;;;-3.40;99.90;;;;;;4993220;28;19988;-87
2022/12/10 00:50:01;;;;;;;;;;;-3.50;99.90;;;;;;4993077;28;20459;-88
2022/12/10 00:52:39;;;;;;;;;;;-3.40;99.90;;;;;;5003663;28;19929;-88
2022/12/10 00:55:14;;;;;;;;;;;-3.50;99.90;;;;;;5030316;28;20029;-88
2022/12/10 00:57:42;;;;;;;;;;;-3.40;99.90;;;;;;5008894;28;20008;-88
2022/12/10 01:00:30;;;;;;;;;;;-3.50;99.90;;;;;;5007392;28;20016;-88
2022/12/10 01:05:47;;;;;;;;;;;-3.50;99.90;;;;;;5020162;28;19997;-88
2022/12/10 01:08:19;;;;;;;;;;;-3.50;99.90;;;;;;5031822;28;19932;-87
2022/12/10 01:10:58;;;;;;;;;;;-3.40;99.90;;;;;;5001506;28;19979;-88
2022/12/10 01:13:26;;;;;;;;;;;-3.50;99.90;;;;;;5030123;28;20353;-87
2022/12/10 01:15:59;;;;;;;;;;;-3.50;99.90;;;;;;5029196;28;19972;-88
2022/12/10 01:18:30;;;;;;;;;;;-3.40;99.90;;;;;;5031527;28;20011;-89
2022/12/10 01:21:10;;;;;;;;;;;;;;;;;;;;;
2022/12/10 01:23:44;;;;;;;;;;;-3.40;99.90;;;;;;5031794;28;19933;-88
2022/12/10 01:26:14;;;;;;;;;;;-3.40;99.90;;;;;;5014920;28;19925;-88
2022/12/10 01:28:54;;;;;;;;;;;-3.40;99.90;;;;;;5024598;28;20023;-88
2022/12/10 01:31:48;;;;;;;;;;;-3.40;99.90;;;;;;5004718;28;19925;-88
2022/12/10 01:34:36;;;;;;;;;;;;;;;;;;;;;
2022/12/10 01:37:12;;;;;;;;;;;-3.30;99.90;;;;;;5032088;28;19925;-87
2022/12/10 01:39:41;;;;;;;;;;;-3.30;99.90;;;;;;5011925;28;19981;-88
2022/12/10 01:42:11;;;;;;;;;;;-3.50;99.90;;;;;;5028893;28;20325;-88
2022/12/10 01:44:47;;;;;;;;;;;-3.40;99.90;;;;;;5031668;28;19944;-90
2022/12/10 01:47:23;;;;;;;;;;;-3.40;99.90;;;;;;5017096;28;19925;-88
2022/12/10 01:49:51;;;;;;;;;;;-3.50;99.90;;;;;;5016449;28;19932;-88
2022/12/10 01:52:40;;;;;;;;;;;-3.60;99.90;;;;;;5028166;28;19972;-88
2022/12/10 01:55:33;;;;;;;;;;;-3.60;99.90;;;;;;5009147;28;20019;-88
2022/12/10 01:58:11;;;;;;;;;;;-3.60;99.90;;;;;;5017951;28;19925;-88
2022/12/10 02:00:43;;;;;;;;;;;-3.50;99.90;;;;;;5011915;28;19999;-87
2022/12/10 02:03:14;;;;;;;;;;;-3.60;99.90;;;;;;5018306;28;19951;-88
2022/12/10 02:06:10;;;;;;;;;;;-3.60;99.90;;;;;;5014114;28;19925;-89
2022/12/10 02:08:42;;;;;;;;;;;-3.70;99.90;;;;;;5034778;28;20411;-87
2022/12/10 02:11:13;;;;;;;;;;;-3.60;99.90;;;;;;5017550;28;20044;-88
2022/12/10 02:13:40;;;;;;;;;;;-3.70;99.90;;;;;;5034375;28;19948;-89
2022/12/10 02:16:20;;;;;;;;;;;-3.70;99.90;;;;;;5037234;28;20007;-88
2022/12/10 02:19:22;;;;;;;;;;;;;;;;;;;;;
2022/12/10 02:22:06;;;;;;;;;;;-3.70;99.90;;;;;;5029527;28;19929;-88
2022/12/10 02:24:36;;;;;;;;;;;-3.70;99.90;;;;;;5021826;28;19935;-88
2022/12/10 02:27:09;;;;;;;;;;;-3.70;99.90;;;;;;5042872;28;19928;-88
2022/12/10 02:29:41;;;;;;;;;;;;;;;;;;5018169;28;20632;-87
2022/12/10 02:32:36;;;;;;;;;;;-3.60;99.90;;;;;;5032959;28;19982;-88
2022/12/10 02:35:23;;;;;;;;;;;-3.50;99.90;;;;;;5019068;28;19925;-88
2022/12/10 02:37:56;;;;;;;;;;;-3.60;99.90;;;;;;5022480;28;19929;-87
2022/12/10 02:40:32;;;;;;;;;;;-3.60;99.90;;;;;;5021905;28;19975;-88
2022/12/10 02:43:03;;;;;;;;;;;-3.50;99.90;;;;;;5025946;28;19929;-88
2022/12/10 02:45:37;;;;;;;;;;;-3.70;99.90;;;;;;5036941;28;19924;-89
2022/12/10 02:48:05;;;;;;;;;;;-3.60;99.90;;;;;;5021581;28;19929;-88
2022/12/10 02:50:46;;;;;;;;;;;-1.50;99.90;;;;;;5053728;28;19928;-88
2022/12/10 02:53:18;;;;;;;;;;;-3.50;99.90;;;;;;5034628;28;19939;-88
2022/12/10 02:55:49;;;;;;;;;;;-3.60;99.90;;;;;;5025764;28;19925;-88
2022/12/10 02:58:20;;;;;;;;;;;-3.50;99.90;;;;;;5037338;28;19978;-88
2022/12/10 03:01:12;;;;;;;;;;;-3.60;99.90;;;;;;5036371;28;19929;-89
2022/12/10 03:03:58;;;;;;;;;;;-3.60;99.90;;;;;;5020805;28;20444;-88
2022/12/10 03:06:27;;;;;;;;;;;-3.70;99.90;;;;;;5015451;28;19991;-87
2022/12/10 03:09:12;;;;;;;;;;;-3.60;99.90;;;;;;5021163;28;19928;-91
2022/12/10 03:11:40;;;;;;;;;;;-3.80;99.90;;;;;;5023855;28;19931;-88
2022/12/10 03:14:18;;;;;;;;;;;-3.70;99.90;;;;;;5031874;28;19983;-88
2022/12/10 03:19:53;;;;;;;;;;;;;;;;;;5035226;28;19929;-88
2022/12/10 03:22:31;;;;;;;;;;;;;;;;;;;;;
2022/12/10 03:25:08;;;;;;;;;;;;;;;;;;5035593;28;19925;-88
2022/12/10 03:27:49;;;;;;;;;;;-3.60;99.90;;;;;;5025454;28;19931;-89
2022/12/10 03:30:40;;;;;;;;;;;-3.70;99.90;;;;;;5056999;28;19983;-88
2022/12/10 03:33:09;;;;;;;;;;;;;;;;;;5032500;28;19931;-88
2022/12/10 03:35:39;;;;;;;;;;;-3.70;99.90;;;;;;5023760;28;19929;-88
2022/12/10 03:38:12;;;;;;;;;;;;;;;;;;5028567;28;19925;-88
2022/12/10 03:40:41;;;;;;;;;;;-3.70;99.90;;;;;;5010634;28;19925;-89
2022/12/10 03:43:08;;;;;;;;;;;-3.70;99.90;;;;;;5031475;28;19925;-87
2022/12/10 03:45:49;;;;;;;;;;;-3.90;99.90;;;;;;5011141;28;20015;-88
2022/12/10 03:48:36;;;;;;;;;;;-3.70;99.90;;;;;;5016875;28;20380;-88
2022/12/10 03:51:15;;;;;;;;;;;-3.90;99.90;;;;;;5022042;28;20265;-88
2022/12/10 03:53:51;;;;;;;;;;;;;;;;;;;;;
2022/12/10 03:56:42;;;;;;;;;;;-3.80;99.90;;;;;;5036113;28;19925;-88
2022/12/10 03:59:13;;;;;;;;;;;-3.70;99.90;;;;;;5025268;28;20387;-88
2022/12/10 04:07:42;;;;;;;;;;;-3.60;99.90;;;;;;5030798;28;19951;-89
2022/12/10 04:10:11;;;;;;;;;;;-3.80;99.90;;;;;;5026408;28;20284;-87
2022/12/10 04:16:26;;;;;;;;;;;-3.80;99.90;;;;;;5017718;28;20304;-87
2022/12/10 04:18:35;;;;;;;;;;;-3.80;99.90;;;;;;5028977;28;20590;-88
2022/12/10 04:27:05;;;;;;;;;;;;;;;;;;;;;
2022/12/10 04:29:33;;;;;;;;;;;-3.80;99.90;;;;;;5022105;28;19940;-87
2022/12/10 04:35:24;;;;;;;;;;;-3.90;99.90;;;;;;5049934;28;19932;-88
2022/12/10 04:37:58;;;;;;;;;;;-3.90;99.90;;;;;;5024493;28;20015;-88
2022/12/10 04:40:29;;;;;;;;;;;-4.00;99.90;;;;;;5019624;28;20287;-88
2022/12/10 04:42:57;;;;;;;;;;;-4.00;99.90;;;;;;5027161;28;19929;-87
2022/12/10 04:45:23;;;;;;;;;;;-4.00;99.90;;;;;;5072554;28;20021;-88
2022/12/10 04:48:01;;;;;;;;;;;-4.00;99.90;;;;;;5056707;28;19964;-88
2022/12/10 04:50:43;;;;;;;;;;;-4.00;99.90;;;;;;5031174;28;19924;-88
2022/12/10 04:53:16;;;;;;;;;;;-4.10;99.90;;;;;;5017517;28;20229;-88
2022/12/10 04:56:08;;;;;;;;;;;;;;;;;;;;;
2022/12/10 04:58:42;;;;;;;;;;;-4.10;99.90;;;;;;5036077;28;19929;-87
2022/12/10 05:01:11;;;;;;;;;;;-4.10;99.90;;;;;;5020824;28;19935;-88
2022/12/10 05:03:49;;;;;;;;;;;-4.20;99.90;;;;;;5020121;28;19925;-88
2022/12/10 05:06:19;;;;;;;;;;;-4.10;99.90;;;;;;5029392;28;19972;-88
2022/12/10 05:08:52;;;;;;;;;;;-4.10;99.90;;;;;;5011576;28;20376;-87
2022/12/10 05:11:21;;;;;;;;;;;-4.10;99.90;;;;;;5018134;28;19931;-88
2022/12/10 05:14:11;;;;;;;;;;;-4.10;99.90;;;;;;5008113;28;19929;-87
2022/12/10 05:16:44;;;;;;;;;;;-4.00;99.90;;;;;;5034097;28;19939;-88
2022/12/10 05:19:23;;;;;;;;;;;-4.00;99.90;;;;;;5015361;28;20391;-89
2022/12/10 05:24:33;;;;;;;;;;;-3.90;99.90;;;;;;5035815;28;20147;-87
2022/12/10 05:27:02;;;;;;;;;;;-3.80;99.90;;;;;;5017819;28;20012;-88
2022/12/10 05:29:39;;;;;;;;;;;-3.70;99.90;;;;;;5034947;28;19925;-88
2022/12/10 05:32:23;;;;;;;;;;;-3.70;99.90;;;;;;5033516;28;19929;-89
2022/12/10 05:37:40;;;;;;;;;;;-3.60;99.90;;;;;;5041980;28;20357;-88
2022/12/10 05:42:54;;;;;;;;;;;-3.40;99.90;;;;;;5033908;28;20278;-88
2022/12/10 05:48:24;;;;;;;;;;;-3.40;99.90;;;;;;5028277;28;20315;-88
2022/12/10 05:50:58;;;;;;;;;;;-3.30;99.90;;;;;;5032365;28;19976;-88
2022/12/10 05:53:26;;;;;;;;;;;-3.30;99.90;;;;;;4983192;28;19925;-88
2022/12/10 05:56:06;;;;;;;;;;;-3.30;99.90;;;;;;5018439;28;20325;-87
2022/12/10 05:58:33;;;;;;;;;;;-3.30;99.90;;;;;;4993840;28;20020;-88
2022/12/10 06:01:05;;;;;;;;;;;-3.30;99.90;;;;;;4997972;28;21600;-89
2022/12/10 06:03:38;;;;;;;;;;;-0.90;99.90;;;;;;4997361;28;19929;-89
2022/12/10 06:06:07;;;;;;;;;;;-4.10;99.90;;;;;;4998998;28;19929;-88
2022/12/10 06:08:48;;;;;;;;;;;;;;;;;;;;;
2022/12/10 06:11:31;;;;;;;;;;;-2.30;99.90;;;;;;5014731;28;19926;-88
2022/12/10 06:14:06;;;;;;;;;;;-1.00;99.90;;;;;;4996167;28;19940;-89
2022/12/10 06:16:50;;;;;;;;;;;-2.60;99.90;;;;;;4990971;28;19969;-89
2022/12/10 06:19:24;;;;;;;;;;;-0.60;99.90;;;;;;4990720;28;19972;-89
2022/12/10 06:22:02;;;;;;;;;;;;;;;;;;;;;
2022/12/10 06:24:36;;;;;;;;;;;-2.40;99.90;;;;;;5014691;28;19925;-88
2022/12/10 06:27:12;;;;;;;;;;;;;;;;;;;;;
2022/12/10 06:29:51;;;;;;;;;;;;;;;;;;;;;
2022/12/10 06:32:35;;;;;;;;;;;;;;;;;;;;;
2022/12/10 06:35:01;;;;;;;;;;;-2.30;99.90;;;;;;5014360;28;19932;-89
2022/12/10 06:37:50;;;;;;;;;;;-2.60;99.90;;;;;;4994273;28;20285;-89
2022/12/10 06:40:26;;;;;;;;;;;-4.60;99.90;;;;;;5007073;28;19929;-89
2022/12/10 06:42:54;;;;;;;;;;;-2.90;99.90;;;;;;5012831;28;19940;-88
2022/12/10 06:45:35;;;;;;;;;;;;;;;;;;;;;
2022/12/10 06:48:14;;;;;;;;;;;0.10;99.90;;;;;;5010248;28;19951;-87
2022/12/10 06:50:41;;;;;;;;;;;-2.90;99.90;;;;;;4989319;28;19925;-88
2022/12/10 06:53:09;;;;;;;;;;;0.40;99.90;;;;;;4996179;28;20365;-88
2022/12/10 06:55:38;;;;;;;;;;;-2.40;99.90;;;;;;5014803;28;19983;-89
2022/12/10 06:58:04;;;;;;;;;;;-5.30;99.90;;;;;;4998427;28;19941;-88
2022/12/10 07:00:33;;;;;;;;;;;-1.40;99.90;;;;;;5008305;28;19936;-89
2022/12/10 07:03:04;;;;;;;;;;;-0.10;99.90;;;;;;5011877;28;19932;-88
2022/12/10 07:08:25;;;;;;;;;;;-0.10;99.90;;;;;;5009167;28;19933;-89
2022/12/10 07:11:10;;;;;;;;;;;-2.80;99.90;;;;;;5021782;28;19932;-88
2022/12/10 07:13:51;;;;;;;;;;;-4.40;99.90;;;;;;5033840;28;19929;-89
2022/12/10 07:16:20;;;;;;;;;;;-1.70;99.90;;;;;;5034664;28;19924;-89
2022/12/10 07:18:52;;;;;;;;;;;-2.10;99.90;;;;;;5033546;28;20016;-89
2022/12/10 07:21:48;;;;;;;;;;;-2.90;99.90;;;;;;5024716;28;19926;-89
2022/12/10 07:24:27;;;;;;;;;;;-2.20;99.90;;;;;;5025326;28;19925;-89
2022/12/10 07:26:55;;;;;;;;;;;-2.50;99.90;;;;;;5016982;28;20327;-88
2022/12/10 07:29:44;;;;;;;;;;;-1.40;99.90;;;;;;5034147;28;19925;-90
2022/12/10 07:32:27;;;;;;;;;;;0.10;99.90;;;;;;5007552;28;19983;-91
2022/12/10 07:35:03;;;;;;;;;;;0.50;99.90;;;;;;5021038;28;19933;-89
2022/12/10 07:37:41;;;;;;;;;;;-1.60;99.90;;;;;;5007939;28;19926;-90
2022/12/10 07:40:10;;;;;;;;;;;0.10;99.90;;;;;;5032523;28;19968;-93
2022/12/10 07:42:45;;;;;;;;;;;-2.70;99.90;;;;;;5029574;28;19925;-89
2022/12/10 07:45:16;;;;;;;;;;;0.30;99.90;;;;;;5031916;28;19970;-90
2022/12/10 07:50:51;;;;;;;;;;;-2.10;99.90;;;;;;5008184;28;19925;-91
2022/12/10 07:53:47;;;;;;;;;;;-3.70;99.90;;;;;;5011419;28;19926;-90
2022/12/10 07:56:22;;;;;;;;;;;-2.70;99.90;;;;;;5035801;28;20016;-90
2022/12/10 07:58:52;;;;;;;;;;;-3.20;99.90;;;;;;5020668;28;19951;-92
2022/12/10 08:01:38;;;;;;;;;;;;;;;;;;;;;
2022/12/10 08:04:07;;;;;;;;;;;-1.70;99.90;;;;;;5049685;28;19982;-91
2022/12/10 08:06:35;;;;;;;;;;;0.10;99.90;;;;;;5020008;28;19925;-91
2022/12/10 08:09:14;;;;;;;;;;;;;;;;;;;;;
2022/12/10 08:14:37;;;;;;;;;;;-4.70;99.90;;;;;;5018219;28;20281;-90
2022/12/10 08:17:08;;;;;;;;;;;-3.90;99.90;;;;;;5023457;28;19925;-89
2022/12/10 08:19:51;;;;;;;;;;;;;;;;;;;;;
2022/12/10 08:22:49;;;;;;;;;;;-4.90;99.90;;;;;;5028449;28;20337;-89
2022/12/10 08:25:31;;;;;;;;;;;;;;;;;;;;;
2022/12/10 08:28:08;;;;;;;;;;;-5.10;99.90;;;;;;5023292;28;20277;-88
2022/12/10 08:33:35;;;;;;;;;;;0.50;99.90;;;;;;4994595;28;20015;-88
2022/12/10 08:36:11;;;;;;;;;;;-2.40;99.90;;;;;;5035689;28;19932;-89
2022/12/10 08:38:36;;;;;;;;;;;-3.00;99.90;;;;;;5028934;28;20279;-90
2022/12/10 08:41:09;;;;;;;;;;;-0.30;99.90;;;;;;5012387;28;19940;-89
2022/12/10 08:43:40;;;;;;;;;;;-2.80;99.90;;;;;;5035823;28;19932;-89
2022/12/10 08:46:15;;;;;;;;;;;-0.60;99.90;;;;;;5015222;28;19935;-89
2022/12/10 08:48:43;;;;;;;;;;;-0.40;99.90;;;;;;5010775;28;19925;-89
2022/12/10 08:51:10;;;;;;;;;;;0.10;99.90;;;;;;5022742;28;20433;-89
2022/12/10 08:53:36;;;;;;;;;;;0.10;99.90;;;;;;5011584;28;19925;-90
2022/12/10 08:56:12;;;;;;;;;;;;;;;;;;;;;
2022/12/10 08:58:38;;;;;;;;;;;-0.50;99.90;;;;;;5038049;28;19929;-90
2022/12/10 09:01:24;;;;;;;;;;;-0.60;99.90;;;;;;5009661;28;20328;-90
2022/12/10 09:04:00;;;;;;;;;;;-2.30;99.90;;;;;;5026418;28;20392;-90
2022/12/10 09:06:54;;;;;;;;;;;;;;;;;;;;;
2022/12/10 09:09:23;;;;;;;;;;;-0.80;99.90;;;;;;5032044;28;19971;-91
2022/12/10 09:12:02;;;;;;;;;;;-1.60;99.90;;;;;;5005867;28;19932;-90
2022/12/10 09:14:54;;;;;;;;;;;-2.30;99.90;;;;;;5019850;28;19960;-91
2022/12/10 09:17:23;;;;;;;;;;;-2.60;99.90;;;;;;5009881;28;19931;-91
2022/12/10 09:20:07;;;;;;;;;;;;;;;;;;;;;
2022/12/10 09:22:44;;;;;;;;;;;-2.60;99.90;;;;;;5033023;28;20005;-92
2022/12/10 09:25:46;;;;;;;;;;;-0.60;99.90;;;;;;5019829;28;20493;-92
2022/12/10 09:28:22;;;;;;;;;;;-0.90;99.90;;;;;;5019138;28;19975;-92
2022/12/10 09:31:17;;;;;;;;;;;-0.30;99.90;;;;;;5033977;28;19928;-92
2022/12/10 09:33:56;;;;;;;;;;;;;;;;;;;;;
2022/12/10 09:36:30;;;;;;;;;;;-0.20;99.90;;;;;;5043647;28;19913;-91
2022/12/10 09:39:09;;;;;;;;;;;-1.10;99.90;;;;;;5029150;28;20005;-93
2022/12/10 09:41:53;;;;;;;;;;;-1.30;99.90;;;;;;5033950;28;19935;-92
2022/12/10 09:44:19;;;;;;;;;;;-2.50;99.90;;;;;;5040373;28;19924;-92
2022/12/10 09:47:17;;;;;;;;;;;-0.70;99.90;;;;;;5046286;28;19989;-93
2022/12/10 09:49:52;;;;;;;;;;;-3.20;99.90;;;;;;5011701;28;19952;-92
2022/12/10 09:52:48;;;;;;;;;;;-0.80;99.90;;;;;;5038617;28;19925;-92
2022/12/10 09:58:47;;;;;;;;;;;;;;;;;;;;;
2022/12/10 10:01:40;;;;;;;;;;;;;;;;;;;;;
2022/12/10 10:04:21;;;;;;;;;;;-2.40;99.90;;;;;;5029843;28;19929;-91
2022/12/10 10:07:17;;;;;;;;;;;;;;;;;;;;;
2022/12/10 10:09:50;;;;;;;;;;;-0.10;99.90;;;;;;5034669;28;19929;-89
2022/12/10 10:12:29;;;;;;;;;;;-1.50;99.90;;;;;;5022163;28;20008;-89
2022/12/10 10:14:59;;;;;;;;;;;-2.10;99.90;;;;;;4994005;28;19925;-92
2022/12/10 10:17:54;;;;;;;;;;;-2.20;99.90;;;;;;5009384;28;19925;-91
2022/12/10 10:20:51;;;;;;;;;;;-1.90;99.90;;;;;;5009380;28;19930;-90
2022/12/10 10:23:28;;;;;;;;;;;-2.60;99.90;;;;;;5017182;28;19988;-92
2022/12/10 10:26:03;;;;;;;;;;;0.50;99.90;;;;;;5013453;28;19932;-91
2022/12/10 10:28:48;;;;;;;;;;;-0.40;99.90;;;;;;5005109;28;19925;-89
2022/12/10 10:31:25;;;;;;;;;;;-3.00;99.90;;;;;;5012504;28;19929;-90
2022/12/10 10:34:07;;;;;;;;;;;-3.60;99.90;;;;;;5024910;28;19932;-89
2022/12/10 10:36:41;;;;;;;;;;;-2.10;99.90;;;;;;5008862;28;19926;-88
2022/12/10 10:39:35;;;;;;;;;;;-1.10;99.90;;;;;;4992193;28;20021;-90
2022/12/10 10:42:14;;;;;;;;;;;-0.40;99.90;;;;;;5018374;28;19932;-89
2022/12/10 10:44:43;;;;;;;;;;;-1.70;99.90;;;;;;5026583;28;20016;-90
2022/12/10 10:50:24;;;;;;;;;;;-1.90;99.90;;;;;;5032807;28;20402;-90
2022/12/10 10:52:52;;;;;;;;;;;-1.00;99.90;;;;;;5021936;28;19925;-89
2022/12/10 10:56:03;;;;;;;;;;;-2.70;99.90;;;;;;5014093;28;19969;-89
2022/12/10 10:58:30;;;;;;;;;;;-2.10;99.90;;;;;;5006344;28;19929;-89
2022/12/10 11:01:10;;;;;;;;;;;-0.20;99.90;;;;;;5017993;28;20257;-89
2022/12/10 11:03:57;;;;;;;;;;;0.20;99.90;;;;;;5034071;28;19952;-89
2022/12/10 11:06:40;;;;;;;;;;;-2.80;99.90;;;;;;5018929;28;19925;-89
2022/12/10 11:09:16;;;;;;;;;;;;;;;;;;;;;
2022/12/10 11:11:52;;;;;;;;;;;;;;;;;;;;;
2022/12/10 11:14:23;;;;;;;;;;;0.10;99.90;;;;;;5020130;28;20185;-88
2022/12/10 11:17:02;;;;;;;;;;;-1.90;99.90;;;;;;5013836;28;20027;-90
2022/12/10 11:19:38;;;;;;;;;;;-3.20;99.90;;;;;;5025337;28;19936;-88
2022/12/10 11:22:22;;;;;;;;;;;-1.30;99.90;;;;;;5005421;28;20016;-88
2022/12/10 11:24:57;;;;;;;;;;;-1.30;99.90;;;;;;5016903;28;19932;-88
2022/12/10 11:27:30;;;;;;;;;;;-2.00;99.90;;;;;;5033616;28;19925;-88
2022/12/10 11:30:17;;;;;;;;;;;0.10;99.90;;;;;;5015853;28;20431;-87
2022/12/10 11:32:48;;;;;;;;;;;-0.20;99.90;;;;;;5033565;28;20369;-88
2022/12/10 11:35:26;;;;;;;;;;;-1.70;99.90;;;;;;5017553;28;19933;-88
2022/12/10 11:37:59;;;;;;;;;;;-1.30;99.90;;;;;;5020434;28;20039;-88
2022/12/10 11:40:24;;;;;;;;;;;-2.70;99.90;;;;;;5015516;28;20067;-90
2022/12/10 11:42:50;;;;;;;;;;;-2.60;99.90;;;;;;4998399;28;20020;-89
2022/12/10 11:45:37;;;;;;;;;;;0.00;99.90;;;;;;5028889;28;19929;-89
2022/12/10 11:48:21;;;;;;;;;;;-1.40;99.90;;;;;;5012593;28;19999;-88
2022/12/10 11:50:59;;;;;;;;;;;0.30;99.90;;;;;;5016483;28;19977;-88
2022/12/10 11:53:48;;;;;;;;;;;-1.40;99.90;;;;;;5027258;28;19933;-88
2022/12/10 11:56:46;;;;;;;;;;;-2.40;99.90;;;;;;5012343;28;19929;-89
2022/12/10 11:59:19;;;;;;;;;;;-1.30;99.90;;;;;;5021838;28;19929;-89
2022/12/10 12:02:26;;;;;;;;;;;0.50;99.90;;;;;;5030769;28;19925;-89
2022/12/10 12:05:31;;;;;;;;;;;-1.20;99.90;;;;;;5028347;28;20421;-91
2022/12/10 12:08:09;;;;;;;;;;;;;;;;;;;;;
2022/12/10 12:10:54;;;;;;;;;;;-1.00;99.90;;;;;;5028159;28;20276;-87
2022/12/10 12:13:52;;;;;;;;;;;-1.20;99.90;;;;;;5014844;28;19925;-89
2022/12/10 12:16:20;;;;;;;;;;;-1.20;99.90;;;;;;5021501;28;19929;-88
2022/12/10 12:19:00;;;;;;;;;;;0.70;99.90;;;;;;5028811;28;19925;-88
2022/12/10 12:21:26;;;;;;;;;;;-1.10;99.90;;;;;;5049593;28;20011;-87
2022/12/10 12:24:17;;;;;;;;;;;0.30;99.90;;;;;;5015439;28;19934;-88
2022/12/10 12:26:53;;;;;;;;;;;0.40;99.90;;;;;;5031044;28;19932;-88
2022/12/10 12:29:28;;;;;;;;;;;-1.20;99.90;;;;;;5036236;28;20051;-88
2022/12/10 12:32:01;;;;;;;;;;;-1.00;99.90;;;;;;5020763;28;20369;-88
2022/12/10 12:34:36;;;;;;;;;;;-1.20;99.90;;;;;;5014138;28;19925;-88
2022/12/10 12:37:14;;;;;;;;;;;-1.20;99.90;;;;;;5006592;28;20409;-88
2022/12/10 12:40:08;;;;;;;;;;;0.60;99.90;;;;;;5028732;28;19979;-87
2022/12/10 12:42:59;;;;;;;;;;;-1.20;99.90;;;;;;5000154;28;19932;-87
2022/12/10 12:45:37;;;;;;;;;;;-1.00;99.90;;;;;;5007760;28;19979;-88
2022/12/10 12:48:23;;;;;;;;;;;;;;;;;;;;;
2022/12/10 12:51:09;;;;;;;;;;;0.70;99.90;;;;;;5028415;28;19925;-88
2022/12/10 12:53:38;;;;;;;;;;;0.40;99.90;;;;;;5014374;28;19941;-89
2022/12/10 12:56:03;;;;;;;;;;;-1.00;99.90;;;;;;5030185;28;20032;-89
2022/12/10 12:58:47;;;;;;;;;;;0.20;99.90;;;;;;5027820;28;20070;-88
2022/12/10 13:01:33;;;;;;;;;;;-2.10;99.90;;;;;;5024630;28;19929;-89
2022/12/10 13:04:01;;;;;;;;;;;-1.20;99.90;;;;;;5008959;28;20318;-89
2022/12/10 13:06:50;;;;;;;;;;;-2.60;99.90;;;;;;5032018;28;20288;-89
2022/12/10 13:09:25;;;;;;;;;;;-1.40;99.90;;;;;;5006404;28;19979;-89
2022/12/10 13:12:05;;;;;;;;;;;-1.20;99.90;;;;;;5026511;28;19960;-90
2022/12/10 13:14:42;;;;;;;;;;;-1.20;99.90;;;;;;5028706;28;19995;-89
2022/12/10 13:17:10;;;;;;;;;;;0.00;99.90;;;;;;4995199;28;20016;-89
2022/12/10 13:19:39;;;;;;;;;;;-1.20;99.90;;;;;;5029925;28;19980;-92
2022/12/10 13:22:15;;;;;;;;;;;-2.60;99.90;;;;;;5027434;28;19933;-90
2022/12/10 13:25:06;;;;;;;;;;;0.30;99.90;;;;;;5010614;28;20371;-91
2022/12/10 13:27:41;;;;;;;;;;;-1.10;99.90;;;;;;5022977;28;19925;-91
2022/12/10 13:30:15;;;;;;;;;;;0.10;99.90;;;;;;5012312;28;19925;-91
2022/12/10 13:32:53;;;;;;;;;;;-1.30;99.90;;;;;;5026774;28;19962;-90
2022/12/10 13:38:46;;;;;;;;;;;-0.80;99.90;;;;;;5017382;28;19925;-91
2022/12/10 13:46:51;;;;;;;;;;;0.80;99.90;;;;;;5028451;28;20223;-91
2022/12/10 13:49:21;;;;;;;;;;;-1.00;99.90;;;;;;5013007;28;19941;-90
2022/12/10 13:52:22;;;;;;;;;;;0.60;99.90;;;;;;5009197;28;19933;-90
2022/12/10 13:55:11;;;;;;;;;;;-0.80;99.90;;;;;;4969452;28;19932;-91
2022/12/10 13:57:49;;;;;;;;;;;-0.20;99.90;;;;;;5029270;28;19947;-91
2022/12/10 14:00:25;;;;;;;;;;;-1.50;99.90;;;;;;5019862;28;19925;-90
2022/12/10 14:03:10;;;;;;;;;;;;;;;;;;;;;
2022/12/10 14:06:17;;;;;;;;;;;0.60;99.90;;;;;;5036804;28;19935;-90
2022/12/10 14:09:05;;;;;;;;;;;-1.60;99.90;;;;;;5047183;28;19980;-91
2022/12/10 14:11:32;;;;;;;;;;;0.60;99.90;;;;;;5046049;28;19960;-90
2022/12/10 14:14:03;;;;;;;;;;;-1.00;99.90;;;;;;5031501;28;19925;-89
2022/12/10 14:16:42;;;;;;;;;;;;;;;;;;;;;
2022/12/10 14:19:15;;;;;;;;;;;-1.90;99.90;;;;;;5041002;28;19925;-88
2022/12/10 14:22:00;;;;;;;;;;;;;;;;;;;;;
2022/12/10 14:27:49;;;;;;;;;;;-1.20;99.90;;;;;;5029192;28;20304;-92
2022/12/10 14:30:26;;;;;;;;;;;-1.00;99.90;;;;;;5009142;28;20438;-93
2022/12/10 14:33:18;;;;;;;;;;;-1.10;99.90;;;;;;5041202;28;19960;-93
2022/12/10 14:36:15;;;;;;;;;;;-1.10;99.90;;;;;;5050554;28;19963;-93
2022/12/10 14:38:51;;;;;;;;;;;-0.70;99.90;;;;;;5026643;28;20079;-91
2022/12/10 14:41:28;;;;;;;;;;;-1.80;99.90;;;;;;5026502;28;19967;-90
2022/12/10 14:44:15;;;;;;;;;;;;;;;;;;;;;
2022/12/10 14:46:43;;;;;;;;;;;-1.80;99.90;;;;;;5030371;28;19986;-88
2022/12/10 14:49:45;;;;;;;;;;;;;;;;;;;;;
2022/12/10 14:52:27;;;;;;;;;;;;;;;;;;;;;
2022/12/10 14:55:03;;;;;;;;;;;-0.90;99.90;;;;;;5028991;28;19925;-89
2022/12/10 14:57:42;;;;;;;;;;;-1.00;99.90;;;;;;5003809;28;19960;-89
2022/12/10 15:00:13;;;;;;;;;;;-1.10;99.90;;;;;;5013043;28;19970;-90
2022/12/10 15:02:51;;;;;;;;;;;-0.90;99.90;;;;;;5037546;28;19937;-91
2022/12/10 15:05:56;;;;;;;;;;;;;;;;;;;;;
2022/12/10 15:08:24;;;;;;;;;;;-1.90;99.90;;;;;;5033505;28;19936;-91
2022/12/10 15:11:31;;;;;;;;;;;-2.20;99.90;;;;;;5019715;28;19925;-89
2022/12/10 15:13:59;;;;;;;;;;;-0.60;99.90;;;;;;5036986;28;19932;-90
2022/12/10 15:16:45;;;;;;;;;;;-1.50;99.90;;;;;;5036545;28;19929;-90
2022/12/10 15:19:25;;;;;;;;;;;-0.80;99.90;;;;;;5018271;28;19925;-91
2022/12/10 15:21:57;;;;;;;;;;;-1.00;99.90;;;;;;5016444;28;19925;-91
2022/12/10 15:24:40;;;;;;;;;;;;;;;;;;;;;
2022/12/10 15:27:42;;;;;;;;;;;-1.10;99.90;;;;;;5035102;28;19975;-91
2022/12/10 15:30:31;;;;;;;;;;;-1.00;99.90;;;;;;5020640;28;19925;-91
2022/12/10 15:33:21;;;;;;;;;;;-1.10;99.90;;;;;;5037187;28;19925;-90
2022/12/10 15:35:49;;;;;;;;;;;-0.90;99.90;;;;;;5019202;28;19949;-91
2022/12/10 15:38:16;;;;;;;;;;;-1.00;99.90;;;;;;5012866;28;20020;-91
2022/12/10 15:40:58;;;;;;;;;;;-1.10;99.90;;;;;;5032384;28;19947;-91
2022/12/10 15:46:36;;;;;;;;;;;-1.30;99.90;;;;;;5037414;28;20276;-90
2022/12/10 15:49:11;;;;;;;;;;;-1.10;99.90;;;;;;5012443;28;19929;-90
2022/12/10 15:51:50;;;;;;;;;;;0.10;99.90;;;;;;5014999;28;20063;-90
2022/12/10 15:54:34;;;;;;;;;;;0.70;99.90;;;;;;5020812;28;19928;-90
2022/12/10 15:59:53;;;;;;;;;;;0.80;99.90;;;;;;5031934;28;20245;-91
2022/12/10 16:02:31;;;;;;;;;;;0.40;99.90;;;;;;5028686;28;19925;-90
2022/12/10 16:05:20;;;;;;;;;;;-0.90;99.90;;;;;;5011676;28;19925;-91
2022/12/10 16:07:58;;;;;;;;;;;-0.90;99.90;;;;;;5019772;28;19925;-91
2022/12/10 16:10:28;;;;;;;;;;;0.00;99.90;;;;;;5007906;28;19978;-90
2022/12/10 16:16:20;;;;;;;;;;;-1.10;99.90;;;;;;5031970;28;19925;-89
2022/12/10 16:19:06;;;;;;;;;;;-0.90;99.90;;;;;;5019941;28;20327;-90
2022/12/10 16:21:37;;;;;;;;;;;-1.00;99.90;;;;;;5053220;28;19948;-91
2022/12/10 16:24:13;;;;;;;;;;;-0.70;99.90;;;;;;5021134;28;19955;-92
2022/12/10 16:27:04;;;;;;;;;;;-1.00;99.90;;;;;;5038031;28;19953;-91
2022/12/10 16:29:38;;;;;;;;;;;-2.10;99.90;;;;;;5034292;28;19925;-91
2022/12/10 16:32:34;;;;;;;;;;;;;;;;;;;;;
2022/12/10 16:35:02;;;;;;;;;;;-1.10;99.90;;;;;;5021661;28;19929;-91
2022/12/10 16:37:59;;;;;;;;;;;;;;;;;;;;;
2022/12/10 16:40:55;;;;;;;;;;;-1.20;99.90;;;;;;5032722;28;19971;-91
2022/12/10 16:43:32;;;;;;;;;;;-0.90;99.90;;;;;;5019671;28;19925;-91
2022/12/10 16:46:22;;;;;;;;;;;-0.90;99.90;;;;;;5017304;28;19925;-90
2022/12/10 16:52:10;;;;;;;;;;;-1.10;99.90;;;;;;5030465;28;19925;-90
2022/12/10 16:54:55;;;;;;;;;;;-1.10;99.90;;;;;;4998192;28;19975;-89
2022/12/10 16:57:23;;;;;;;;;;;-1.90;99.90;;;;;;5000183;28;19925;-92
2022/12/10 17:00:22;;;;;;;;;;;;;;;;;;;;;
2022/12/10 17:06:08;;;;;;;;;;;;;;;;;;;;;
2022/12/10 17:08:54;;;;;;;;;;;-1.00;99.90;;;;;;5022956;28;19979;-90
2022/12/10 17:11:49;;;;;;;;;;;0.40;99.90;;;;;;5048666;28;19951;-91
2022/12/10 17:14:47;;;;;;;;;;;-1.00;99.90;;;;;;5034598;28;20012;-92
2022/12/10 17:17:40;;;;;;;;;;;-1.20;99.90;;;;;;5030457;28;19925;-92
2022/12/10 17:20:25;;;;;;;;;;;-0.90;99.90;;;;;;5018397;28;19970;-90
2022/12/10 17:23:08;;;;;;;;;;;;;;;;;;;;;
2022/12/10 17:25:50;;;;;;;;;;;0.80;99.90;;;;;;5048575;28;20031;-90
2022/12/10 17:28:45;;;;;;;;;;;-1.00;99.90;;;;;;5014342;28;19929;-90
2022/12/10 17:31:33;;;;;;;;;;;-1.20;99.90;;;;;;5028707;28;19924;-91
2022/12/10 17:34:24;;;;;;;;;;;-1.30;99.90;;;;;;5017958;28;19925;-91
2022/12/10 17:37:00;;;;;;;;;;;-1.10;99.90;;;;;;5015622;28;19924;-92
2022/12/10 17:39:28;;;;;;;;;;;-1.20;99.90;;;;;;5023743;28;19926;-90